sensor_id;sensor_type;location;lat;lon;timestamp;pressure;altitude;pressure_sealevel;temperature;humidity
61645;BME280;47553;52.428;13.382;2023-01-08T00:00:27;100419.22;;;7.28;100.00
61645;BME280;47553;52.428;13.382;2023-01-08T00:02:30;100411.03;;;7.33;100.00
61645;BME280;47553;52.428;13.382;2023-01-08T00:04:35;100404.75;;;7.35;100.00
61645;BME280;47553;52.428;13.382;2023-01-08T00:06:38;100412.91;;;7.31;100.00
61645;BME280;47553;52.428;13.382;2023-01-08T00:08:39;100400.81;;;7.25;100.00
61645;BME280;47553;52.428;13.382;2023-01-08T00:10:41;100395.13;;;7.33;100.00
61645;BME280;47553;52.428;13.382;2023-01-08T00:12:43;100393.41;;;7.32;100.00
61645;BME280;47553;52.428;13.382;2023-01-08T00:14:44;100398.44;;;7.38;100.00
61645;BME280;47553;52.428;13.382;2023-01-08T00:16:46;100394.34;;;7.31;100.00
61645;BME280;47553;52.428;13.382;2023-01-08T00:18:50;100393.16;;;7.19;100.00
61645;BME280;47553;52.428;13.382;2023-01-08T00:20:52;100392.94;;;7.23;100.00
61645;BME280;47553;52.428;13.382;2023-01-08T00:22:55;100397.59;;;7.18;100.00
61645;BME280;47553;52.428;13.382;2023-01-08T00:24:57;100390.56;;;7.17;100.00
61645;BME280;47553;52.428;13.382;2023-01-08T00:26:58;100387.47;;;7.26;100.00
61645;BME280;47553;52.428;13.382;2023-01-08T00:29:00;100386.19;;;7.16;100.00
61645;BME280;47553;52.428;13.382;2023-01-08T00:31:02;100383.97;;;7.07;100.00
61645;BME280;47553;52.428;13.382;2023-01-08T00:33:04;100373.94;;;7.14;100.00
61645;BME280;47553;52.428;13.382;2023-01-08T00:35:06;100374.59;;;7.19;100.00
61645;BME280;47553;52.428;13.382;2023-01-08T00:37:09;100366.34;;;7.06;100.00
61645;BME280;47553;52.428;13.382;2023-01-08T00:39:15;100367.78;;;7.13;100.00
61645;BME280;47553;52.428;13.382;2023-01-08T00:41:17;100358.72;;;7.17;100.00
61645;BME280;47553;52.428;13.382;2023-01-08T00:43:18;100357.00;;;7.16;100.00
61645;BME280;47553;52.428;13.382;2023-01-08T00:45:20;100359.34;;;7.05;100.00
61645;BME280;47553;52.428;13.382;2023-01-08T00:47:24;100354.97;;;7.04;100.00
61645;BME280;47553;52.428;13.382;2023-01-08T00:49:26;100357.00;;;6.99;100.00
61645;BME280;47553;52.428;13.382;2023-01-08T00:51:27;100358.78;;;6.98;100.00
61645;BME280;47553;52.428;13.382;2023-01-08T00:53:29;100345.44;;;7.00;100.00
61645;BME280;47553;52.428;13.382;2023-01-08T00:55:35;100351.50;;;6.85;100.00
61645;BME280;47553;52.428;13.382;2023-01-08T00:57:39;100350.78;;;6.81;100.00
61645;BME280;47553;52.428;13.382;2023-01-08T00:59:41;100353.38;;;6.83;100.00
61645;BME280;47553;52.428;13.382;2023-01-08T01:01:45;100351.81;;;6.79;100.00
61645;BME280;47553;52.428;13.382;2023-01-08T01:03:47;100341.13;;;6.80;100.00
61645;BME280;47553;52.428;13.382;2023-01-08T01:05:49;100335.59;;;6.85;100.00
61645;BME280;47553;52.428;13.382;2023-01-08T01:07:50;100342.34;;;6.73;100.00
61645;BME280;47553;52.428;13.382;2023-01-08T01:09:55;100336.06;;;6.76;100.00
61645;BME280;47553;52.428;13.382;2023-01-08T01:11:58;100332.38;;;6.78;100.00
61645;BME280;47553;52.428;13.382;2023-01-08T01:14:00;100322.78;;;6.76;100.00
61645;BME280;47553;52.428;13.382;2023-01-08T01:16:02;100326.97;;;6.62;100.00
61645;BME280;47553;52.428;13.382;2023-01-08T01:18:04;100348.75;;;6.69;100.00
61645;BME280;47553;52.428;13.382;2023-01-08T01:20:13;100336.19;;;6.73;100.00
61645;BME280;47553;52.428;13.382;2023-01-08T01:22:14;100338.00;;;6.72;100.00
61645;BME280;47553;52.428;13.382;2023-01-08T01:24:16;100341.00;;;6.64;100.00
61645;BME280;47553;52.428;13.382;2023-01-08T01:26:19;100337.91;;;6.74;100.00
61645;BME280;47553;52.428;13.382;2023-01-08T01:28:23;100333.34;;;6.58;100.00
61645;BME280;47553;52.428;13.382;2023-01-08T01:30:24;100331.50;;;6.60;100.00
61645;BME280;47553;52.428;13.382;2023-01-08T01:32:26;100327.50;;;6.52;100.00
61645;BME280;47553;52.428;13.382;2023-01-08T01:34:28;100324.91;;;6.50;100.00
61645;BME280;47553;52.428;13.382;2023-01-08T01:36:33;100339.09;;;6.49;100.00
61645;BME280;47553;52.428;13.382;2023-01-08T01:38:34;100334.09;;;6.43;100.00
61645;BME280;47553;52.428;13.382;2023-01-08T01:40:43;100335.81;;;6.44;100.00
61645;BME280;47553;52.428;13.382;2023-01-08T01:42:44;100334.78;;;6.28;100.00
61645;BME280;47553;52.428;13.382;2023-01-08T01:44:47;100326.06;;;6.26;100.00
61645;BME280;47553;52.428;13.382;2023-01-08T01:46:49;100329.63;;;6.25;100.00
61645;BME280;47553;52.428;13.382;2023-01-08T01:48:52;100334.63;;;6.31;100.00
61645;BME280;47553;52.428;13.382;2023-01-08T01:50:57;100331.19;;;6.29;100.00
61645;BME280;47553;52.428;13.382;2023-01-08T01:53:02;100316.25;;;6.28;100.00
61645;BME280;47553;52.428;13.382;2023-01-08T01:55:07;100309.88;;;6.32;100.00
61645;BME280;47553;52.428;13.382;2023-01-08T01:57:10;100306.16;;;6.36;100.00
61645;BME280;47553;52.428;13.382;2023-01-08T01:59:11;100294.69;;;6.36;100.00
61645;BME280;47553;52.428;13.382;2023-01-08T02:01:15;100304.06;;;6.24;100.00
61645;BME280;47553;52.428;13.382;2023-01-08T02:03:21;100310.94;;;6.28;100.00
61645;BME280;47553;52.428;13.382;2023-01-08T02:05:31;100312.03;;;6.24;100.00
61645;BME280;47553;52.428;13.382;2023-01-08T02:07:39;100306.28;;;6.33;100.00
61645;BME280;47553;52.428;13.382;2023-01-08T02:09:47;100291.41;;;6.12;100.00
61645;BME280;47553;52.428;13.382;2023-01-08T02:11:54;100291.84;;;6.21;100.00
61645;BME280;47553;52.428;13.382;2023-01-08T02:14:06;100296.56;;;6.15;100.00
61645;BME280;47553;52.428;13.382;2023-01-08T02:16:15;100294.19;;;6.09;100.00
61645;BME280;47553;52.428;13.382;2023-01-08T02:18:22;100293.84;;;6.16;100.00
61645;BME280;47553;52.428;13.382;2023-01-08T02:20:30;100285.13;;;6.14;100.00
61645;BME280;47553;52.428;13.382;2023-01-08T02:22:40;100276.03;;;6.20;100.00
61645;BME280;47553;52.428;13.382;2023-01-08T02:24:53;100281.81;;;6.28;100.00
61645;BME280;47553;52.428;13.382;2023-01-08T02:26:58;100266.22;;;6.22;100.00
61645;BME280;47553;52.428;13.382;2023-01-08T02:29:05;100249.03;;;6.30;100.00
61645;BME280;47553;52.428;13.382;2023-01-08T02:31:07;100254.16;;;6.33;100.00
61645;BME280;47553;52.428;13.382;2023-01-08T02:33:10;100256.91;;;6.13;100.00
61645;BME280;47553;52.428;13.382;2023-01-08T02:35:12;100265.44;;;6.01;100.00
61645;BME280;47553;52.428;13.382;2023-01-08T02:37:14;100259.94;;;6.06;100.00
61645;BME280;47553;52.428;13.382;2023-01-08T02:39:26;100259.19;;;6.21;100.00
61645;BME280;47553;52.428;13.382;2023-01-08T02:41:37;100260.50;;;5.93;100.00
61645;BME280;47553;52.428;13.382;2023-01-08T02:43:44;100249.63;;;5.99;100.00
61645;BME280;47553;52.428;13.382;2023-01-08T02:45:51;100245.97;;;6.21;100.00
61645;BME280;47553;52.428;13.382;2023-01-08T02:48:05;100253.91;;;6.21;100.00
61645;BME280;47553;52.428;13.382;2023-01-08T02:50:18;100247.72;;;6.39;100.00
61645;BME280;47553;52.428;13.382;2023-01-08T02:52:23;100242.88;;;6.49;100.00
61645;BME280;47553;52.428;13.382;2023-01-08T02:54:33;100234.69;;;6.53;100.00
61645;BME280;47553;52.428;13.382;2023-01-08T02:56:37;100232.66;;;6.58;100.00
61645;BME280;47553;52.428;13.382;2023-01-08T02:58:45;100236.50;;;6.34;100.00
61645;BME280;47553;52.428;13.382;2023-01-08T03:00:52;100234.72;;;6.16;100.00
61645;BME280;47553;52.428;13.382;2023-01-08T03:03:01;100221.81;;;6.27;100.00
61645;BME280;47553;52.428;13.382;2023-01-08T03:05:12;100219.69;;;6.16;100.00
61645;BME280;47553;52.428;13.382;2023-01-08T03:07:17;100220.25;;;6.23;100.00
61645;BME280;47553;52.428;13.382;2023-01-08T03:09:19;100219.09;;;6.28;100.00
61645;BME280;47553;52.428;13.382;2023-01-08T03:11:22;100211.38;;;6.24;100.00
61645;BME280;47553;52.428;13.382;2023-01-08T03:13:30;100216.97;;;6.18;100.00
61645;BME280;47553;52.428;13.382;2023-01-08T03:15:37;100224.84;;;6.19;100.00
61645;BME280;47553;52.428;13.382;2023-01-08T03:17:43;100231.69;;;5.87;100.00
61645;BME280;47553;52.428;13.382;2023-01-08T03:19:49;100218.28;;;5.90;100.00
61645;BME280;47553;52.428;13.382;2023-01-08T03:21:55;100228.59;;;5.96;100.00
61645;BME280;47553;52.428;13.382;2023-01-08T03:23:56;100232.47;;;5.89;100.00
61645;BME280;47553;52.428;13.382;2023-01-08T03:25:59;100213.22;;;5.86;100.00
61645;BME280;47553;52.428;13.382;2023-01-08T03:28:07;100198.41;;;6.00;100.00
61645;BME280;47553;52.428;13.382;2023-01-08T03:30:10;100202.41;;;5.90;100.00
61645;BME280;47553;52.428;13.382;2023-01-08T03:32:15;100197.25;;;5.87;100.00
61645;BME280;47553;52.428;13.382;2023-01-08T03:34:19;100198.25;;;6.04;100.00
61645;BME280;47553;52.428;13.382;2023-01-08T03:36:24;100212.56;;;5.99;100.00
61645;BME280;47553;52.428;13.382;2023-01-08T03:38:30;100205.22;;;5.87;100.00
61645;BME280;47553;52.428;13.382;2023-01-08T03:40:37;100194.19;;;5.96;100.00
61645;BME280;47553;52.428;13.382;2023-01-08T03:42:40;100184.38;;;5.98;100.00
61645;BME280;47553;52.428;13.382;2023-01-08T03:44:42;100186.81;;;6.03;100.00
61645;BME280;47553;52.428;13.382;2023-01-08T03:46:48;100187.25;;;5.94;100.00
61645;BME280;47553;52.428;13.382;2023-01-08T03:48:53;100192.16;;;6.01;100.00
61645;BME280;47553;52.428;13.382;2023-01-08T03:50:55;100181.94;;;5.94;100.00
61645;BME280;47553;52.428;13.382;2023-01-08T03:52:57;100187.25;;;5.94;100.00
61645;BME280;47553;52.428;13.382;2023-01-08T03:55:01;100198.34;;;5.83;100.00
61645;BME280;47553;52.428;13.382;2023-01-08T03:57:03;100198.34;;;5.83;100.00
61645;BME280;47553;52.428;13.382;2023-01-08T03:59:04;100199.75;;;5.90;100.00
61645;BME280;47553;52.428;13.382;2023-01-08T04:01:06;100204.78;;;5.96;100.00
61645;BME280;47553;52.428;13.382;2023-01-08T04:03:07;100212.50;;;5.82;100.00
61645;BME280;47553;52.428;13.382;2023-01-08T04:05:10;100208.81;;;5.66;100.00
61645;BME280;47553;52.428;13.382;2023-01-08T04:07:12;100207.72;;;5.72;100.00
61645;BME280;47553;52.428;13.382;2023-01-08T04:09:14;100203.84;;;5.79;100.00
61645;BME280;47553;52.428;13.382;2023-01-08T04:11:16;100196.38;;;5.68;100.00
61645;BME280;47553;52.428;13.382;2023-01-08T04:13:17;100205.13;;;5.70;100.00
61645;BME280;47553;52.428;13.382;2023-01-08T04:15:19;100197.94;;;5.53;100.00
61645;BME280;47553;52.428;13.382;2023-01-08T04:17:23;100192.84;;;5.69;100.00
61645;BME280;47553;52.428;13.382;2023-01-08T04:19:25;100196.53;;;5.65;100.00
61645;BME280;47553;52.428;13.382;2023-01-08T04:21:27;100199.16;;;5.65;100.00
61645;BME280;47553;52.428;13.382;2023-01-08T04:23:29;100198.00;;;5.72;100.00
61645;BME280;47553;52.428;13.382;2023-01-08T04:25:31;100200.78;;;5.69;100.00
61645;BME280;47553;52.428;13.382;2023-01-08T04:27:32;100195.53;;;5.67;100.00
61645;BME280;47553;52.428;13.382;2023-01-08T04:29:34;100195.41;;;5.71;100.00
61645;BME280;47553;52.428;13.382;2023-01-08T04:31:35;100187.16;;;5.58;100.00
61645;BME280;47553;52.428;13.382;2023-01-08T04:33:37;100178.72;;;5.68;100.00
61645;BME280;47553;52.428;13.382;2023-01-08T04:35:38;100186.31;;;5.76;100.00
61645;BME280;47553;52.428;13.382;2023-01-08T04:37:41;100171.25;;;5.78;100.00
61645;BME280;47553;52.428;13.382;2023-01-08T04:39:43;100169.50;;;5.96;100.00
61645;BME280;47553;52.428;13.382;2023-01-08T04:41:44;100168.28;;;6.03;100.00
61645;BME280;47553;52.428;13.382;2023-01-08T04:43:46;100180.66;;;6.03;100.00
61645;BME280;47553;52.428;13.382;2023-01-08T04:45:47;100166.34;;;6.07;100.00
61645;BME280;47553;52.428;13.382;2023-01-08T04:47:54;100152.16;;;6.08;100.00
61645;BME280;47553;52.428;13.382;2023-01-08T04:49:56;100153.09;;;6.07;100.00
61645;BME280;47553;52.428;13.382;2023-01-08T04:51:57;100162.50;;;5.95;100.00
61645;BME280;47553;52.428;13.382;2023-01-08T04:54:00;100171.66;;;5.69;100.00
61645;BME280;47553;52.428;13.382;2023-01-08T04:56:03;100166.72;;;5.80;100.00
61645;BME280;47553;52.428;13.382;2023-01-08T04:58:05;100169.81;;;5.71;100.00
61645;BME280;47553;52.428;13.382;2023-01-08T05:00:06;100174.81;;;5.77;100.00
61645;BME280;47553;52.428;13.382;2023-01-08T05:02:08;100164.72;;;5.85;100.00
61645;BME280;47553;52.428;13.382;2023-01-08T05:04:10;100161.38;;;5.82;100.00
61645;BME280;47553;52.428;13.382;2023-01-08T05:06:12;100156.06;;;5.82;100.00
61645;BME280;47553;52.428;13.382;2023-01-08T05:08:13;100152.91;;;5.92;100.00
61645;BME280;47553;52.428;13.382;2023-01-08T05:10:16;100164.91;;;5.99;100.00
61645;BME280;47553;52.428;13.382;2023-01-08T05:12:18;100153.47;;;5.99;100.00
61645;BME280;47553;52.428;13.382;2023-01-08T05:14:20;100158.06;;;5.95;100.00
61645;BME280;47553;52.428;13.382;2023-01-08T05:16:22;100152.28;;;5.87;100.00
61645;BME280;47553;52.428;13.382;2023-01-08T05:18:23;100154.47;;;5.96;100.00
61645;BME280;47553;52.428;13.382;2023-01-08T05:20:25;100141.69;;;5.87;100.00
61645;BME280;47553;52.428;13.382;2023-01-08T05:22:26;100151.03;;;5.94;100.00
61645;BME280;47553;52.428;13.382;2023-01-08T05:24:28;100149.81;;;6.01;100.00
61645;BME280;47553;52.428;13.382;2023-01-08T05:26:31;100153.88;;;6.09;100.00
61645;BME280;47553;52.428;13.382;2023-01-08T05:28:33;100142.03;;;5.98;100.00
61645;BME280;47553;52.428;13.382;2023-01-08T05:30:35;100148.59;;;6.09;100.00
61645;BME280;47553;52.428;13.382;2023-01-08T05:32:36;100152.31;;;6.05;100.00
61645;BME280;47553;52.428;13.382;2023-01-08T05:34:38;100144.22;;;6.08;100.00
61645;BME280;47553;52.428;13.382;2023-01-08T05:36:41;100146.88;;;6.08;100.00
61645;BME280;47553;52.428;13.382;2023-01-08T05:38:42;100146.88;;;6.08;100.00
61645;BME280;47553;52.428;13.382;2023-01-08T05:40:44;100137.13;;;6.08;100.00
61645;BME280;47553;52.428;13.382;2023-01-08T05:42:47;100139.22;;;6.01;100.00
61645;BME280;47553;52.428;13.382;2023-01-08T05:44:48;100135.28;;;6.10;100.00
61645;BME280;47553;52.428;13.382;2023-01-08T05:46:51;100134.41;;;6.10;100.00
61645;BME280;47553;52.428;13.382;2023-01-08T05:48:53;100142.69;;;6.21;100.00
61645;BME280;47553;52.428;13.382;2023-01-08T05:50:54;100129.75;;;6.15;100.00
61645;BME280;47553;52.428;13.382;2023-01-08T05:52:56;100128.50;;;6.22;100.00
61645;BME280;47553;52.428;13.382;2023-01-08T05:54:57;100126.50;;;6.27;100.00
61645;BME280;47553;52.428;13.382;2023-01-08T05:56:59;100131.47;;;6.33;100.00
61645;BME280;47553;52.428;13.382;2023-01-08T05:59:02;100124.16;;;6.38;100.00
61645;BME280;47553;52.428;13.382;2023-01-08T06:01:05;100123.59;;;6.31;100.00
61645;BME280;47553;52.428;13.382;2023-01-08T06:03:07;100129.28;;;6.41;100.00
61645;BME280;47553;52.428;13.382;2023-01-08T06:05:09;100131.00;;;6.42;100.00
61645;BME280;47553;52.428;13.382;2023-01-08T06:07:10;100119.19;;;6.49;100.00
61645;BME280;47553;52.428;13.382;2023-01-08T06:09:12;100121.53;;;6.55;100.00
61645;BME280;47553;52.428;13.382;2023-01-08T06:11:14;100123.47;;;6.52;100.00
61645;BME280;47553;52.428;13.382;2023-01-08T06:13:15;100118.69;;;6.41;100.00
61645;BME280;47553;52.428;13.382;2023-01-08T06:15:18;100110.91;;;6.38;100.00
61645;BME280;47553;52.428;13.382;2023-01-08T06:17:20;100108.72;;;6.29;100.00
61645;BME280;47553;52.428;13.382;2023-01-08T06:19:21;100112.00;;;6.34;100.00
61645;BME280;47553;52.428;13.382;2023-01-08T06:21:22;100109.03;;;6.23;100.00
61645;BME280;47553;52.428;13.382;2023-01-08T06:23:24;100086.75;;;6.10;100.00
61645;BME280;47553;52.428;13.382;2023-01-08T06:25:26;100107.25;;;6.41;100.00
61645;BME280;47553;52.428;13.382;2023-01-08T06:27:28;100116.91;;;6.42;100.00
61645;BME280;47553;52.428;13.382;2023-01-08T06:29:30;100111.09;;;6.52;100.00
61645;BME280;47553;52.428;13.382;2023-01-08T06:31:33;100105.78;;;6.35;100.00
61645;BME280;47553;52.428;13.382;2023-01-08T06:33:35;100111.56;;;6.43;100.00
61645;BME280;47553;52.428;13.382;2023-01-08T06:35:36;100109.06;;;6.57;100.00
61645;BME280;47553;52.428;13.382;2023-01-08T06:37:38;100103.59;;;6.60;100.00
61645;BME280;47553;52.428;13.382;2023-01-08T06:39:39;100107.13;;;6.44;100.00
61645;BME280;47553;52.428;13.382;2023-01-08T06:41:41;100105.63;;;6.55;100.00
61645;BME280;47553;52.428;13.382;2023-01-08T06:43:43;100101.25;;;6.37;100.00
61645;BME280;47553;52.428;13.382;2023-01-08T06:45:52;100104.25;;;6.48;100.00
61645;BME280;47553;52.428;13.382;2023-01-08T06:47:55;100097.78;;;6.54;100.00
61645;BME280;47553;52.428;13.382;2023-01-08T06:50:00;100107.41;;;6.38;100.00
61645;BME280;47553;52.428;13.382;2023-01-08T06:52:02;100101.81;;;6.44;100.00
61645;BME280;47553;52.428;13.382;2023-01-08T06:54:04;100107.88;;;6.63;100.00
61645;BME280;47553;52.428;13.382;2023-01-08T06:56:06;100101.56;;;6.65;100.00
61645;BME280;47553;52.428;13.382;2023-01-08T06:58:09;100105.78;;;6.52;100.00
61645;BME280;47553;52.428;13.382;2023-01-08T07:00:12;100107.16;;;6.42;100.00
61645;BME280;47553;52.428;13.382;2023-01-08T07:02:15;100107.75;;;6.49;100.00
61645;BME280;47553;52.428;13.382;2023-01-08T07:04:18;100111.00;;;6.54;100.00
61645;BME280;47553;52.428;13.382;2023-01-08T07:06:21;100099.84;;;6.64;100.00
61645;BME280;47553;52.428;13.382;2023-01-08T07:08:23;100102.28;;;6.69;100.00
61645;BME280;47553;52.428;13.382;2023-01-08T07:10:25;100103.75;;;6.75;99.89
61645;BME280;47553;52.428;13.382;2023-01-08T07:12:26;100106.41;;;6.75;100.00
61645;BME280;47553;52.428;13.382;2023-01-08T07:14:28;100102.19;;;6.71;99.90
61645;BME280;47553;52.428;13.382;2023-01-08T07:16:30;100104.19;;;6.83;100.00
61645;BME280;47553;52.428;13.382;2023-01-08T07:18:32;100104.53;;;6.77;99.80
61645;BME280;47553;52.428;13.382;2023-01-08T07:20:35;100098.53;;;6.73;100.00
61645;BME280;47553;52.428;13.382;2023-01-08T07:22:37;100107.63;;;6.85;100.00
61645;BME280;47553;52.428;13.382;2023-01-08T07:24:39;100117.75;;;6.94;98.32
61645;BME280;47553;52.428;13.382;2023-01-08T07:26:40;100115.94;;;6.94;100.00
61645;BME280;47553;52.428;13.382;2023-01-08T07:28:42;100119.44;;;6.95;99.59
61645;BME280;47553;52.428;13.382;2023-01-08T07:30:44;100123.38;;;6.88;100.00
61645;BME280;47553;52.428;13.382;2023-01-08T07:32:45;100122.97;;;6.95;100.00
61645;BME280;47553;52.428;13.382;2023-01-08T07:34:46;100114.53;;;7.05;100.00
61645;BME280;47553;52.428;13.382;2023-01-08T07:36:49;100118.06;;;6.88;100.00
61645;BME280;47553;52.428;13.382;2023-01-08T07:38:51;100118.31;;;7.16;100.00
61645;BME280;47553;52.428;13.382;2023-01-08T07:40:52;100120.16;;;7.32;100.00
61645;BME280;47553;52.428;13.382;2023-01-08T07:42:58;100113.63;;;7.39;100.00
61645;BME280;47553;52.428;13.382;2023-01-08T07:44:59;100119.94;;;7.36;100.00
61645;BME280;47553;52.428;13.382;2023-01-08T07:47:01;100115.78;;;7.31;100.00
61645;BME280;47553;52.428;13.382;2023-01-08T07:49:02;100106.03;;;7.31;100.00
61645;BME280;47553;52.428;13.382;2023-01-08T07:51:05;100109.72;;;7.28;100.00
61645;BME280;47553;52.428;13.382;2023-01-08T07:53:10;100112.53;;;7.25;100.00
61645;BME280;47553;52.428;13.382;2023-01-08T07:55:12;100110.88;;;7.40;100.00
61645;BME280;47553;52.428;13.382;2023-01-08T07:57:13;100104.19;;;7.33;100.00
61645;BME280;47553;52.428;13.382;2023-01-08T07:59:14;100110.03;;;7.40;100.00
61645;BME280;47553;52.428;13.382;2023-01-08T08:01:16;100100.44;;;7.37;100.00
61645;BME280;47553;52.428;13.382;2023-01-08T08:03:18;100088.09;;;7.36;100.00
61645;BME280;47553;52.428;13.382;2023-01-08T08:05:20;100085.97;;;7.43;100.00
61645;BME280;47553;52.428;13.382;2023-01-08T08:07:21;100088.97;;;7.37;100.00
61645;BME280;47553;52.428;13.382;2023-01-08T08:09:24;100093.50;;;7.35;100.00
61645;BME280;47553;52.428;13.382;2023-01-08T08:11:26;100091.88;;;7.48;100.00
61645;BME280;47553;52.428;13.382;2023-01-08T08:13:27;100092.31;;;7.40;100.00
61645;BME280;47553;52.428;13.382;2023-01-08T08:15:29;100103.78;;;7.41;100.00
61645;BME280;47553;52.428;13.382;2023-01-08T08:17:31;100104.13;;;7.50;100.00
61645;BME280;47553;52.428;13.382;2023-01-08T08:19:32;100103.88;;;7.55;100.00
61645;BME280;47553;52.428;13.382;2023-01-08T08:21:34;100096.75;;;7.55;100.00
61645;BME280;47553;52.428;13.382;2023-01-08T08:23:35;100094.03;;;7.57;100.00
61645;BME280;47553;52.428;13.382;2023-01-08T08:25:39;100098.97;;;7.47;100.00
61645;BME280;47553;52.428;13.382;2023-01-08T08:27:41;100088.28;;;7.49;100.00
61645;BME280;47553;52.428;13.382;2023-01-08T08:29:43;100088.19;;;7.35;100.00
61645;BME280;47553;52.428;13.382;2023-01-08T08:31:44;100084.84;;;7.47;100.00
61645;BME280;47553;52.428;13.382;2023-01-08T08:33:46;100085.53;;;7.50;100.00
61645;BME280;47553;52.428;13.382;2023-01-08T08:35:48;100080.84;;;7.55;100.00
61645;BME280;47553;52.428;13.382;2023-01-08T08:37:49;100065.16;;;7.51;100.00
61645;BME280;47553;52.428;13.382;2023-01-08T08:39:51;100069.44;;;7.53;100.00
61645;BME280;47553;52.428;13.382;2023-01-08T08:41:54;100069.94;;;7.28;100.00
61645;BME280;47553;52.428;13.382;2023-01-08T08:43:56;100074.38;;;7.28;100.00
61645;BME280;47553;52.428;13.382;2023-01-08T08:45:57;100066.88;;;7.36;100.00
61645;BME280;47553;52.428;13.382;2023-01-08T08:47:59;100073.66;;;7.42;100.00
61645;BME280;47553;52.428;13.382;2023-01-08T08:50:00;100072.44;;;7.63;100.00
61645;BME280;47553;52.428;13.382;2023-01-08T08:52:02;100069.44;;;7.69;100.00
61645;BME280;47553;52.428;13.382;2023-01-08T08:54:04;100079.34;;;7.81;100.00
61645;BME280;47553;52.428;13.382;2023-01-08T08:56:06;100061.91;;;7.77;100.00
61645;BME280;47553;52.428;13.382;2023-01-08T08:58:10;100068.75;;;7.81;100.00
61645;BME280;47553;52.428;13.382;2023-01-08T09:00:14;100068.38;;;7.87;100.00
61645;BME280;47553;52.428;13.382;2023-01-08T09:02:16;100061.22;;;7.74;100.00
61645;BME280;47553;52.428;13.382;2023-01-08T09:04:17;100052.63;;;7.84;100.00
61645;BME280;47553;52.428;13.382;2023-01-08T09:06:19;100047.03;;;7.59;100.00
61645;BME280;47553;52.428;13.382;2023-01-08T09:08:21;100039.94;;;7.89;100.00
61645;BME280;47553;52.428;13.382;2023-01-08T09:10:22;100038.25;;;7.88;100.00
61645;BME280;47553;52.428;13.382;2023-01-08T09:12:25;100015.63;;;7.81;100.00
61645;BME280;47553;52.428;13.382;2023-01-08T09:14:27;100012.78;;;8.30;100.00
61645;BME280;47553;52.428;13.382;2023-01-08T09:16:29;100025.16;;;8.15;100.00
61645;BME280;47553;52.428;13.382;2023-01-08T09:18:31;100037.66;;;8.43;98.40
61645;BME280;47553;52.428;13.382;2023-01-08T09:20:32;100030.84;;;8.53;98.91
61645;BME280;47553;52.428;13.382;2023-01-08T09:22:34;100032.41;;;8.72;96.89
61645;BME280;47553;52.428;13.382;2023-01-08T09:24:36;100042.38;;;8.24;99.15
61645;BME280;47553;52.428;13.382;2023-01-08T09:26:37;100060.78;;;8.27;98.71
61645;BME280;47553;52.428;13.382;2023-01-08T09:28:39;100058.56;;;8.19;100.00
61645;BME280;47553;52.428;13.382;2023-01-08T09:30:42;100049.34;;;8.11;100.00
61645;BME280;47553;52.428;13.382;2023-01-08T09:32:43;100059.44;;;8.20;100.00
61645;BME280;47553;52.428;13.382;2023-01-08T09:34:45;100071.13;;;8.02;100.00
61645;BME280;47553;52.428;13.382;2023-01-08T09:36:46;100051.94;;;7.97;100.00
61645;BME280;47553;52.428;13.382;2023-01-08T09:38:48;100056.06;;;8.02;100.00
61645;BME280;47553;52.428;13.382;2023-01-08T09:40:53;100067.22;;;7.93;100.00
61645;BME280;47553;52.428;13.382;2023-01-08T09:42:59;100070.72;;;7.94;100.00
61645;BME280;47553;52.428;13.382;2023-01-08T09:45:02;100079.16;;;8.16;100.00
61645;BME280;47553;52.428;13.382;2023-01-08T09:47:10;100081.41;;;8.08;100.00
61645;BME280;47553;52.428;13.382;2023-01-08T09:49:20;100086.22;;;7.85;100.00
61645;BME280;47553;52.428;13.382;2023-01-08T09:51:26;100079.53;;;7.94;100.00
61645;BME280;47553;52.428;13.382;2023-01-08T09:53:31;100069.34;;;7.86;100.00
61645;BME280;47553;52.428;13.382;2023-01-08T09:55:33;100081.66;;;8.03;100.00
61645;BME280;47553;52.428;13.382;2023-01-08T09:57:34;100087.25;;;7.99;100.00
61645;BME280;47553;52.428;13.382;2023-01-08T09:59:37;100075.19;;;7.93;100.00
61645;BME280;47553;52.428;13.382;2023-01-08T10:01:39;100070.09;;;7.88;100.00
61645;BME280;47553;52.428;13.382;2023-01-08T10:03:46;100064.47;;;7.79;100.00
61645;BME280;47553;52.428;13.382;2023-01-08T10:05:50;100071.31;;;7.99;100.00
61645;BME280;47553;52.428;13.382;2023-01-08T10:07:52;100057.91;;;8.16;100.00
61645;BME280;47553;52.428;13.382;2023-01-08T10:09:54;100054.66;;;8.11;100.00
61645;BME280;47553;52.428;13.382;2023-01-08T10:11:58;100047.84;;;8.21;100.00
61645;BME280;47553;52.428;13.382;2023-01-08T10:14:01;100037.59;;;8.15;100.00
61645;BME280;47553;52.428;13.382;2023-01-08T10:16:06;100044.03;;;8.11;100.00
61645;BME280;47553;52.428;13.382;2023-01-08T10:18:11;100045.13;;;7.93;100.00
61645;BME280;47553;52.428;13.382;2023-01-08T10:20:17;100035.66;;;8.03;100.00
61645;BME280;47553;52.428;13.382;2023-01-08T10:22:20;100038.19;;;8.20;100.00
61645;BME280;47553;52.428;13.382;2023-01-08T10:24:33;100030.00;;;8.09;100.00
61645;BME280;47553;52.428;13.382;2023-01-08T10:26:36;100035.00;;;7.99;100.00
61645;BME280;47553;52.428;13.382;2023-01-08T10:28:38;100042.13;;;8.13;100.00
61645;BME280;47553;52.428;13.382;2023-01-08T10:30:40;100034.00;;;8.16;100.00
61645;BME280;47553;52.428;13.382;2023-01-08T10:32:46;100036.84;;;8.13;100.00
61645;BME280;47553;52.428;13.382;2023-01-08T10:34:49;100034.31;;;7.96;100.00